createdAt,value
2022-12-15T00:00:18.090Z,6.83
2022-12-15T00:03:04.077Z,8.13
2022-12-15T00:05:50.114Z,7.54
2022-12-15T00:08:36.000Z,5.76
2022-12-15T00:11:22.671Z,6.08
2022-12-15T00:14:08.811Z,7.07
2022-12-15T00:16:54.032Z,6.99
2022-12-15T00:19:40.129Z,5.93
2022-12-15T00:22:26.118Z,5.76
2022-12-15T00:25:11.527Z,5.78
2022-12-15T00:27:56.705Z,4.76
2022-12-15T00:30:42.056Z,7.01
2022-12-15T00:33:31.401Z,6.92
2022-12-15T00:36:18.299Z,6.43
2022-12-15T00:38:46.009Z,6.88
2022-12-15T00:41:15.141Z,5.60
2022-12-15T00:43:41.925Z,7.52
2022-12-15T00:46:27.717Z,7.27
2022-12-15T00:48:55.575Z,5.99
2022-12-15T00:51:22.841Z,5.50
2022-12-15T00:54:11.869Z,6.60
2022-12-15T00:57:00.593Z,5.12
2022-12-15T00:59:45.949Z,5.15
2022-12-15T01:02:31.275Z,4.16
2022-12-15T01:05:16.643Z,6.11
2022-12-15T01:08:01.835Z,4.32
2022-12-15T01:10:47.221Z,5.97
2022-12-15T01:13:32.767Z,6.03
2022-12-15T01:16:18.698Z,6.51
2022-12-15T01:19:04.043Z,5.79
2022-12-15T01:21:32.120Z,7.13
2022-12-15T01:23:58.793Z,6.94
2022-12-15T01:26:25.793Z,7.07
2022-12-15T01:28:52.489Z,7.85
2022-12-15T01:31:19.651Z,6.02
2022-12-15T01:33:46.329Z,5.79
2022-12-15T01:36:13.115Z,6.02
2022-12-15T01:38:40.622Z,6.37
2022-12-15T01:41:10.997Z,5.26
2022-12-15T01:43:41.056Z,6.20
2022-12-15T01:46:22.231Z,5.98
2022-12-15T01:48:59.969Z,5.09
2022-12-15T01:51:34.289Z,4.91
2022-12-15T01:54:11.004Z,4.79
2022-12-15T01:56:42.850Z,6.81
2022-12-15T01:59:15.250Z,5.87
2022-12-15T02:01:42.661Z,6.81
2022-12-15T02:04:11.241Z,5.57
2022-12-15T02:06:37.966Z,5.09
2022-12-15T02:09:05.899Z,5.84
2022-12-15T02:12:02.771Z,4.42
2022-12-15T02:15:06.895Z,5.42
2022-12-15T02:18:04.334Z,5.81
2022-12-15T02:20:52.568Z,6.21
2022-12-15T02:23:34.645Z,6.08
2022-12-15T02:26:30.084Z,6.11
2022-12-15T02:29:13.293Z,6.76
2022-12-15T02:31:52.501Z,7.10
2022-12-15T02:34:45.245Z,6.61
2022-12-15T02:37:22.641Z,6.76
2022-12-15T02:39:49.450Z,7.07
2022-12-15T02:42:16.599Z,6.11
2022-12-15T02:44:57.729Z,5.58
2022-12-15T02:47:24.869Z,6.48
2022-12-15T02:50:22.695Z,3.83
2022-12-15T02:53:43.513Z,4.91
2022-12-15T02:56:20.721Z,2.92
2022-12-15T02:59:03.186Z,4.63
2022-12-15T03:01:49.934Z,3.53
2022-12-15T03:04:18.153Z,4.07
2022-12-15T03:06:45.033Z,4.00
2022-12-15T03:09:12.576Z,1.77
2022-12-15T03:11:40.443Z,3.41
2022-12-15T03:14:07.155Z,4.81
2022-12-15T03:16:34.606Z,6.46
2022-12-15T03:19:01.374Z,5.35
2022-12-15T03:21:28.221Z,5.17
2022-12-15T03:23:55.359Z,6.00
2022-12-15T03:26:22.110Z,4.63
2022-12-15T03:28:48.811Z,5.67
2022-12-15T03:31:15.653Z,5.19
2022-12-15T03:33:43.109Z,6.43
2022-12-15T03:36:10.287Z,6.29
2022-12-15T03:38:37.055Z,3.82
2022-12-15T03:41:03.797Z,4.39
2022-12-15T03:43:30.928Z,4.09
2022-12-15T03:45:58.526Z,3.99
2022-12-15T03:48:25.520Z,4.34
2022-12-15T03:50:52.190Z,3.41
2022-12-15T03:53:18.947Z,5.82
2022-12-15T03:55:45.664Z,4.57
2022-12-15T03:58:13.162Z,2.61
2022-12-15T04:00:40.293Z,5.08
2022-12-15T04:03:07.167Z,5.50
2022-12-15T04:05:35.336Z,3.73
2022-12-15T04:08:02.488Z,5.31
2022-12-15T04:10:34.653Z,3.15
2022-12-15T04:13:07.374Z,4.73
2022-12-15T04:15:35.748Z,2.53
2022-12-15T04:18:05.947Z,3.56
2022-12-15T04:20:33.223Z,3.43
2022-12-15T04:23:00.366Z,5.13
2022-12-15T04:25:46.193Z,3.91
2022-12-15T04:28:32.565Z,3.72
2022-12-15T04:31:36.761Z,4.24
2022-12-15T04:34:24.886Z,4.92
2022-12-15T04:37:12.735Z,4.00
2022-12-15T04:40:00.925Z,3.57
2022-12-15T04:42:47.505Z,5.57
2022-12-15T04:45:35.846Z,3.74
2022-12-15T04:48:20.809Z,4.20
2022-12-15T04:51:06.528Z,1.13
2022-12-15T04:53:51.742Z,3.91
2022-12-15T04:56:36.973Z,3.74
2022-12-15T04:59:22.589Z,3.80
2022-12-15T05:02:07.822Z,1.73
2022-12-15T05:04:53.631Z,2.36
2022-12-15T05:07:39.327Z,0.62
2022-12-15T05:10:26.005Z,4.76
2022-12-15T05:13:11.339Z,5.59
2022-12-15T05:15:57.089Z,3.26
2022-12-15T05:18:43.086Z,4.82
2022-12-15T05:21:28.261Z,2.50
2022-12-15T05:24:13.969Z,4.92
2022-12-15T05:26:59.165Z,4.46
2022-12-15T05:29:44.401Z,5.86
2022-12-15T05:32:13.641Z,3.65
2022-12-15T05:34:40.645Z,2.87
2022-12-15T05:37:07.702Z,4.77
2022-12-15T05:39:34.518Z,3.70
2022-12-15T05:42:01.454Z,5.12
2022-12-15T05:44:29.473Z,4.76
2022-12-15T05:46:56.303Z,5.03
2022-12-15T05:49:23.453Z,5.09
2022-12-15T05:51:50.528Z,4.93
2022-12-15T05:54:19.685Z,4.64
2022-12-15T05:56:50.446Z,4.85
2022-12-15T05:59:19.220Z,5.48
2022-12-15T06:01:46.432Z,4.24
2022-12-15T06:04:14.600Z,4.32
2022-12-15T06:06:41.549Z,0.82
2022-12-15T06:09:09.251Z,2.31
2022-12-15T06:11:37.420Z,0.16
2022-12-15T06:14:04.288Z,2.86
2022-12-15T06:16:31.154Z,2.77
2022-12-15T06:19:01.019Z,4.82
2022-12-15T06:21:31.500Z,4.70
2022-12-15T06:23:58.829Z,1.59
2022-12-15T06:26:28.699Z,2.95
2022-12-15T06:28:58.789Z,3.53
2022-12-15T06:31:26.695Z,2.83
2022-12-15T06:34:00.890Z,3.90
2022-12-15T06:36:28.843Z,3.36
2022-12-15T06:38:58.812Z,3.90
2022-12-15T06:41:25.528Z,3.58
2022-12-15T06:43:55.910Z,4.17
2022-12-15T06:46:24.282Z,1.32
2022-12-15T06:48:51.576Z,3.37
2022-12-15T06:51:18.874Z,4.62
2022-12-15T06:53:49.059Z,3.64
2022-12-15T06:56:30.718Z,3.92
2022-12-15T06:59:00.391Z,3.24
2022-12-15T07:01:28.277Z,4.02
2022-12-15T07:03:55.907Z,3.85
2022-12-15T07:06:23.184Z,3.92
2022-12-15T07:08:53.103Z,4.36
2022-12-15T07:11:21.256Z,3.92
2022-12-15T07:13:53.156Z,4.23
2022-12-15T07:16:21.854Z,3.81
2022-12-15T07:18:49.534Z,3.38
2022-12-15T07:21:16.957Z,3.36
2022-12-15T07:24:00.884Z,4.42
2022-12-15T07:26:29.303Z,5.19
2022-12-15T07:28:56.247Z,4.26
2022-12-15T07:31:23.703Z,3.62
2022-12-15T07:33:52.703Z,4.59
2022-12-15T07:36:19.819Z,4.10
2022-12-15T07:38:50.079Z,2.64
2022-12-15T07:41:18.664Z,3.57
2022-12-15T07:43:47.120Z,1.97
2022-12-15T07:46:14.654Z,-0.35
2022-12-15T07:48:41.536Z,3.68
2022-12-15T07:51:17.116Z,3.53
2022-12-15T07:53:47.017Z,3.51
2022-12-15T07:56:14.756Z,1.60
2022-12-15T07:58:42.570Z,0.53
2022-12-15T08:01:12.649Z,3.11
2022-12-15T08:03:40.405Z,3.16
2022-12-15T08:06:13.718Z,1.76
2022-12-15T08:08:43.756Z,0.60
2022-12-15T08:11:14.775Z,1.42
2022-12-15T08:16:32.138Z,3.28
2022-12-15T08:19:00.076Z,1.78
2022-12-15T08:21:27.755Z,2.09
2022-12-15T08:23:55.065Z,3.39
2022-12-15T08:26:26.794Z,3.70
2022-12-15T08:29:11.894Z,3.64
2022-12-15T08:31:45.164Z,2.60
2022-12-15T08:34:12.860Z,2.34
2022-12-15T08:36:39.616Z,3.47
2022-12-15T08:39:06.339Z,3.21
2022-12-15T08:41:33.658Z,1.65
2022-12-15T08:44:01.743Z,3.43
2022-12-15T08:46:33.999Z,4.11
2022-12-15T08:49:02.683Z,1.32
2022-12-15T08:51:31.508Z,1.24
2022-12-15T08:54:00.372Z,2.06
2022-12-15T08:56:28.253Z,-0.65
2022-12-15T08:59:02.635Z,2.28
2022-12-15T09:01:32.462Z,3.00
2022-12-15T09:04:01.671Z,2.61
2022-12-15T09:06:34.622Z,3.39
2022-12-15T09:09:05.888Z,3.78
2022-12-15T09:11:33.092Z,2.85
2022-12-15T09:14:00.556Z,3.58
2022-12-15T09:16:28.371Z,5.03
2022-12-15T09:18:57.885Z,3.31
2022-12-15T09:21:29.433Z,2.24
2022-12-15T09:24:01.993Z,0.78
2022-12-15T09:26:34.620Z,2.04
2022-12-15T09:29:02.693Z,1.11
2022-12-15T09:31:33.323Z,3.00
2022-12-15T09:34:02.137Z,2.65
2022-12-15T09:36:31.983Z,1.01
2022-12-15T09:39:02.111Z,0.78
2022-12-15T09:41:39.978Z,1.03
2022-12-15T09:44:13.801Z,2.17
2022-12-15T09:47:05.027Z,-0.22
2022-12-15T09:49:57.584Z,1.91
2022-12-15T09:52:27.398Z,3.25
2022-12-15T09:54:54.379Z,3.76
2022-12-15T09:57:26.017Z,2.42
2022-12-15T10:00:11.657Z,3.78
2022-12-15T10:02:45.073Z,4.77
2022-12-15T10:06:06.796Z,2.66
2022-12-15T10:08:31.298Z,5.03
2022-12-15T10:11:01.797Z,2.27
2022-12-15T10:13:44.128Z,3.29
2022-12-15T10:16:55.235Z,3.11
2022-12-15T10:20:27.031Z,2.92
2022-12-15T10:22:56.802Z,1.16
2022-12-15T10:25:30.073Z,2.85
2022-12-15T10:28:17.878Z,3.62
2022-12-15T10:31:14.462Z,3.11
2022-12-15T10:33:48.481Z,3.34
2022-12-15T10:36:18.275Z,1.57
2022-12-15T10:38:50.504Z,4.19
2022-12-15T10:41:21.554Z,1.44
2022-12-15T10:43:50.793Z,2.81
2022-12-15T10:46:22.139Z,2.83
2022-12-15T10:49:00.538Z,1.97
2022-12-15T10:51:37.128Z,2.37
2022-12-15T10:54:09.843Z,4.21
2022-12-15T10:56:57.918Z,1.48
2022-12-15T10:59:36.448Z,3.06
2022-12-15T11:02:33.202Z,2.93
2022-12-15T11:05:15.632Z,1.14
2022-12-15T11:07:48.237Z,2.58
2022-12-15T11:10:19.184Z,1.94
2022-12-15T11:13:15.723Z,3.18
2022-12-15T11:15:56.634Z,4.34
2022-12-15T11:18:48.722Z,3.92
2022-12-15T11:21:30.746Z,3.59
2022-12-15T11:24:15.890Z,2.31
2022-12-15T11:26:48.813Z,0.41
2022-12-15T11:29:21.390Z,1.56
2022-12-15T11:31:50.242Z,0.62
2022-12-15T11:34:21.150Z,0.49
2022-12-15T11:37:24.144Z,1.54
2022-12-15T11:40:02.443Z,2.51
2022-12-15T11:43:12.739Z,2.34
2022-12-15T11:46:32.743Z,4.24
2022-12-15T11:49:08.293Z,4.00
2022-12-15T11:51:41.389Z,-0.37
2022-12-15T11:54:15.014Z,1.47
2022-12-15T11:56:56.618Z,3.22
2022-12-15T11:59:29.987Z,4.15
2022-12-15T12:02:34.027Z,3.66
2022-12-15T12:05:41.790Z,4.45
2022-12-15T12:08:30.540Z,6.13
2022-12-15T12:11:18.904Z,4.22
2022-12-15T12:14:11.635Z,1.08
2022-12-15T12:16:48.772Z,2.42
2022-12-15T12:19:34.681Z,0.57
2022-12-15T12:22:12.510Z,2.60
2022-12-15T12:24:50.789Z,1.36
2022-12-15T12:27:30.227Z,5.34
2022-12-15T12:30:11.894Z,1.37
2022-12-15T12:32:51.306Z,2.43
2022-12-15T12:35:42.878Z,2.64
2022-12-15T12:38:12.485Z,2.24
2022-12-15T12:41:04.546Z,3.17
2022-12-15T12:43:58.182Z,1.27
2022-12-15T12:46:42.698Z,0.54
2022-12-15T12:49:12.266Z,2.59
2022-12-15T12:51:42.110Z,1.71
2022-12-15T12:54:34.706Z,2.62
2022-12-15T12:57:22.460Z,5.17
2022-12-15T13:00:01.739Z,2.68
2022-12-15T13:02:29.390Z,2.69
2022-12-15T13:05:00.716Z,0.35
2022-12-15T13:07:40.406Z,2.43
2022-12-15T13:10:07.800Z,2.08
2022-12-15T13:12:54.008Z,4.68
2022-12-15T13:15:30.597Z,1.96
2022-12-15T13:18:18.755Z,4.35
2022-12-15T13:20:50.554Z,3.50
2022-12-15T13:23:20.303Z,0.45
2022-12-15T13:26:07.548Z,0.81
2022-12-15T13:28:35.336Z,4.55
2022-12-15T13:31:24.477Z,4.59
2022-12-15T13:33:51.359Z,4.16
2022-12-15T13:36:36.896Z,1.38
2022-12-15T13:39:12.910Z,3.84
2022-12-15T13:42:23.753Z,3.25
2022-12-15T13:44:41.864Z,1.92
2022-12-15T13:47:13.230Z,1.93
2022-12-15T13:50:01.756Z,2.71
2022-12-15T13:53:17.827Z,1.93
2022-12-15T13:55:51.146Z,1.95
2022-12-15T13:58:20.515Z,0.84
2022-12-15T14:00:51.679Z,2.21
2022-12-15T14:03:19.392Z,1.82
2022-12-15T14:05:55.193Z,1.50
2022-12-15T14:08:23.933Z,0.33
2022-12-15T14:10:59.085Z,-0.29
2022-12-15T14:13:35.103Z,0.18
2022-12-15T14:16:14.655Z,-0.54
2022-12-15T14:18:43.271Z,1.61
2022-12-15T14:21:24.828Z,2.38
2022-12-15T14:24:19.738Z,3.50
2022-12-15T14:26:41.219Z,4.20
2022-12-15T14:29:10.654Z,2.09
2022-12-15T14:31:37.827Z,2.71
2022-12-15T14:34:38.898Z,1.84
2022-12-15T14:37:12.316Z,2.05
2022-12-15T14:39:46.868Z,3.30
2022-12-15T14:42:25.632Z,1.49
2022-12-15T14:44:57.376Z,1.93
2022-12-15T14:47:32.422Z,3.14
2022-12-15T14:50:02.138Z,2.48
2022-12-15T14:52:40.017Z,2.02
2022-12-15T14:55:27.764Z,2.97
2022-12-15T14:57:54.556Z,2.13
2022-12-15T15:00:32.898Z,2.00
2022-12-15T15:03:39.434Z,2.13
2022-12-15T15:06:12.718Z,1.60
2022-12-15T15:08:52.615Z,2.35
2022-12-15T15:11:36.246Z,2.44
2022-12-15T15:14:08.988Z,2.85
2022-12-15T15:16:36.791Z,1.90
2022-12-15T15:19:05.472Z,1.05
2022-12-15T15:21:37.379Z,3.09
2022-12-15T15:24:24.990Z,3.73
2022-12-15T15:26:52.808Z,4.03
2022-12-15T15:29:41.250Z,0.60
2022-12-15T15:32:18.091Z,2.00
2022-12-15T15:34:48.633Z,2.90
2022-12-15T15:37:21.776Z,3.17
2022-12-15T15:39:51.167Z,1.37
2022-12-15T15:42:19.103Z,0.79
2022-12-15T15:44:47.257Z,3.30
2022-12-15T15:47:27.010Z,2.69
2022-12-15T15:49:58.339Z,1.36
2022-12-15T15:52:26.243Z,-1.33
2022-12-15T15:54:53.372Z,1.72
2022-12-15T15:57:20.453Z,1.01
2022-12-15T15:59:47.953Z,-0.38
2022-12-15T16:02:15.598Z,-0.13
2022-12-15T16:04:44.622Z,0.08
2022-12-15T16:07:25.571Z,-0.45
2022-12-15T16:09:53.460Z,-0.98
2022-12-15T16:12:44.984Z,2.44
2022-12-15T16:15:18.505Z,1.79
2022-12-15T16:20:28.367Z,1.22
2022-12-15T16:22:59.606Z,1.60
2022-12-15T16:25:48.491Z,2.24
2022-12-15T16:28:23.502Z,1.34
2022-12-15T16:30:51.700Z,2.05
2022-12-15T16:33:19.287Z,2.14
2022-12-15T16:35:50.575Z,2.67
2022-12-15T16:38:24.528Z,2.15
2022-12-15T16:40:55.435Z,-0.97
2022-12-15T16:43:28.956Z,3.29
2022-12-15T16:46:00.046Z,-0.65
2022-12-15T16:48:27.292Z,2.56
2022-12-15T16:50:58.610Z,4.69
2022-12-15T16:53:29.715Z,3.13
2022-12-15T16:55:58.862Z,4.39
2022-12-15T16:58:27.284Z,3.48
2022-12-15T17:00:54.846Z,1.40
2022-12-15T17:03:25.888Z,2.11
2022-12-15T17:05:55.854Z,3.40
2022-12-15T17:08:46.689Z,2.93
2022-12-15T17:11:25.718Z,1.66
2022-12-15T17:13:55.893Z,1.04
2022-12-15T17:16:25.285Z,2.76
2022-12-15T17:18:52.907Z,1.09
2022-12-15T17:21:32.467Z,1.66
2022-12-15T17:24:06.711Z,3.69
2022-12-15T17:26:37.601Z,2.68
2022-12-15T17:29:23.424Z,2.73
2022-12-15T17:31:50.406Z,3.79
2022-12-15T17:34:34.744Z,1.69
2022-12-15T17:37:04.679Z,2.73
2022-12-15T17:39:34.112Z,1.13
2022-12-15T17:42:01.986Z,3.44
2022-12-15T17:44:36.293Z,0.23
2022-12-15T17:47:07.031Z,0.02
2022-12-15T17:49:37.316Z,2.21
2022-12-15T17:52:26.329Z,3.11
2022-12-15T17:54:53.666Z,2.61
2022-12-15T17:57:21.727Z,1.06
2022-12-15T17:59:49.067Z,1.38
2022-12-15T18:02:16.037Z,4.30
2022-12-15T18:04:43.533Z,2.43
2022-12-15T18:07:24.143Z,1.68
2022-12-15T18:09:53.150Z,1.59
2022-12-15T18:12:23.387Z,1.14
2022-12-15T18:14:50.721Z,0.09
2022-12-15T18:17:18.217Z,0.82
2022-12-15T18:19:46.103Z,0.15
2022-12-15T18:22:23.422Z,-1.76
2022-12-15T18:24:53.431Z,-2.46
2022-12-15T18:27:22.332Z,-0.91
2022-12-15T18:29:49.921Z,-0.02
2022-12-15T18:32:17.887Z,0.72
2022-12-15T18:34:44.888Z,0.28
2022-12-15T18:37:20.089Z,0.81
2022-12-15T18:39:47.409Z,-0.57
2022-12-15T18:42:17.006Z,-0.05
2022-12-15T18:44:48.176Z,-0.58
2022-12-15T18:47:23.767Z,-1.11
2022-12-15T18:49:50.960Z,-2.39
2022-12-15T18:52:23.861Z,-1.30
2022-12-15T18:54:54.312Z,-0.74
2022-12-15T18:57:39.420Z,-1.63
2022-12-15T19:00:15.200Z,-1.16
2022-12-15T19:02:42.756Z,-1.72
2022-12-15T19:05:28.009Z,-0.36
2022-12-15T19:07:56.541Z,3.09
2022-12-15T19:10:27.020Z,0.66
2022-12-15T19:12:58.375Z,0.86
2022-12-15T19:15:26.009Z,-1.08
2022-12-15T19:18:11.549Z,2.08
2022-12-15T19:20:57.805Z,1.65
2022-12-15T19:23:24.990Z,0.33
2022-12-15T19:25:53.775Z,-1.00
2022-12-15T19:28:23.812Z,1.05
2022-12-15T19:30:52.803Z,0.64
2022-12-15T19:33:20.432Z,0.28
2022-12-15T19:35:51.424Z,0.49
2022-12-15T19:38:29.412Z,0.94
2022-12-15T19:40:57.903Z,0.02
2022-12-15T19:43:25.494Z,1.78
2022-12-15T19:45:54.658Z,-1.89
2022-12-15T19:48:23.670Z,0.74
2022-12-15T19:50:54.947Z,0.71
2022-12-15T19:53:28.288Z,1.06
2022-12-15T19:55:59.042Z,1.18
2022-12-15T19:58:36.481Z,1.42
2022-12-15T20:01:10.157Z,0.97
2022-12-15T20:03:38.639Z,-0.47
2022-12-15T20:06:14.411Z,-0.22
2022-12-15T20:08:42.892Z,-0.25
2022-12-15T20:11:28.692Z,0.94
2022-12-15T20:13:56.413Z,1.60
2022-12-15T20:16:24.895Z,1.03
2022-12-15T20:18:54.934Z,1.80
2022-12-15T20:21:32.317Z,-1.35
2022-12-15T20:24:02.477Z,0.00
2022-12-15T20:26:30.546Z,-1.04
2022-12-15T20:28:58.052Z,0.75
2022-12-15T20:31:26.871Z,2.33
2022-12-15T20:33:54.582Z,2.35
2022-12-15T20:36:27.734Z,0.17
2022-12-15T20:38:56.665Z,0.62
2022-12-15T20:41:28.658Z,0.52
2022-12-15T20:43:56.342Z,3.62
2022-12-15T20:46:33.152Z,3.33
2022-12-15T20:49:00.396Z,2.68
2022-12-15T20:51:32.850Z,0.95
2022-12-15T20:54:02.846Z,2.78
2022-12-15T20:56:29.966Z,1.57
2022-12-15T20:58:58.291Z,2.32
2022-12-15T21:01:28.892Z,1.72
2022-12-15T21:03:57.522Z,0.42
2022-12-15T21:06:25.947Z,1.41
2022-12-15T21:08:53.997Z,1.32
2022-12-15T21:11:26.977Z,2.18
2022-12-15T21:13:56.846Z,1.70
2022-12-15T21:16:27.736Z,2.51
2022-12-15T21:19:20.267Z,2.15
2022-12-15T21:21:46.220Z,3.34
2022-12-15T21:24:19.582Z,4.40
2022-12-15T21:26:47.054Z,3.68
2022-12-15T21:29:16.072Z,2.92
2022-12-15T21:31:44.026Z,4.85
2022-12-15T21:34:11.868Z,0.54
2022-12-15T21:36:41.790Z,1.33
2022-12-15T21:39:11.722Z,2.07
2022-12-15T21:41:43.024Z,2.34
2022-12-15T21:44:15.201Z,2.53
2022-12-15T21:46:42.127Z,3.65
2022-12-15T21:49:20.723Z,3.94
2022-12-15T21:51:52.770Z,3.15
2022-12-15T21:57:12.784Z,1.85
2022-12-15T21:59:40.624Z,3.58
2022-12-15T22:02:36.808Z,3.18
2022-12-15T22:05:04.092Z,2.27
2022-12-15T22:07:31.349Z,3.89
2022-12-15T22:09:58.479Z,4.11
2022-12-15T22:12:26.905Z,3.95
2022-12-15T22:14:54.658Z,2.07
2022-12-15T22:17:22.271Z,3.67
2022-12-15T22:19:49.951Z,3.79
2022-12-15T22:22:17.286Z,5.24
2022-12-15T22:24:44.339Z,5.57
2022-12-15T22:27:23.351Z,3.66
2022-12-15T22:29:51.780Z,0.66
2022-12-15T22:32:18.793Z,4.68
2022-12-15T22:34:45.637Z,4.96
2022-12-15T22:37:12.754Z,5.74
2022-12-15T22:39:40.939Z,3.35
2022-12-15T22:42:15.038Z,3.45
2022-12-15T22:44:42.365Z,5.36
2022-12-15T22:47:11.054Z,4.18
2022-12-15T22:49:41.172Z,4.81
2022-12-15T22:52:19.174Z,5.65
2022-12-15T22:54:46.656Z,4.66
2022-12-15T22:57:35.446Z,4.64
2022-12-15T23:00:08.188Z,5.83
2022-12-15T23:02:39.183Z,5.28
2022-12-15T23:05:07.671Z,5.11
2022-12-15T23:07:35.637Z,5.53
2022-12-15T23:10:21.743Z,3.92
2022-12-15T23:12:54.916Z,3.33
2022-12-15T23:15:41.882Z,2.84
2022-12-15T23:18:08.920Z,3.27
2022-12-15T23:20:37.215Z,3.79
2022-12-15T23:23:05.409Z,1.35
2022-12-15T23:25:32.213Z,4.14
2022-12-15T23:27:59.129Z,3.27
2022-12-15T23:30:26.305Z,4.45
2022-12-15T23:32:55.416Z,2.99
2022-12-15T23:35:22.833Z,3.18
2022-12-15T23:37:49.593Z,3.21
2022-12-15T23:40:22.278Z,2.31
2022-12-15T23:42:49.975Z,5.21
2022-12-15T23:45:18.279Z,1.74
2022-12-15T23:47:45.121Z,4.56
2022-12-15T23:50:12.025Z,4.01
2022-12-15T23:52:39.053Z,3.42
2022-12-15T23:55:10.397Z,1.97
2022-12-15T23:57:38.608Z,6.31
